MLM weather

General Francisco J. Mujica International Airport
Morelia, Michoacin, Mexico

Public forecast

Using degrees Celsius for public forecast. Weather courtesy of forecast.io.

METAR (pilot weather report)

Retrieved 2019/04/20 19:41 UTC (1 hour ago):

MMMM 201941Z 00000KT 8SM SCT030 29/04 A3023 RMK 8/100 HZY

TAF (pilot weather forecast)

Retrieved 2019/04/20 18:27 UTC (2 hours ago):

TAF MMMM 201623Z 2018/2124 20010KT P6SM SCT020 FM202100 22010KT P6SM BKN030 FM210300 00000KT P6SM SCT015 FM211500 13010KT P6SM SCT260